Hauptseite
METAR-TAF:

METAR-TAF

Flughäfen :

Front Royal, Virginia, Vereinigte Staaten

Breite: 38-55-03N, Länge: 078-15-12W, Höhe: 216 m

Beobachtung

Neuester Wetterbericht von vor 24 Minuten, um 22:35 UTC
Windstille
Temperatur 12°C
Luftfeuchtigkeit 100%
Luftdruck 1015 hPa
Sichtweite: 6.4 km
Geschlossene Wolkendecke in der Höhe von 8000 ft

METAR: KFRR 142235Z AUTO 00000KT 4SM OVC080 12/12 A2996 RMK AO1 P0005

Zeit: 18:59 (22:59 UTC)


TAF: fehlend

Wetterbeobachtungen und Prognosen von mehr als 4000 Flughäfen (METAR und TAF Bericht).

Die verfügbaren Stationen werden durch gelbe und rote Markierungen auf der Karte dargestellt.

Führen Sie die Maus auf sie, um den Namen der Station zu sehen.

Darauf klicken, um die Beobachtung von Wetterbeobachtungen und Prognosen zu sehen.

Um die Karte zu ändern : klicken Sie auf den grünen Tasten mit einem schwarzen Kreuz Zum Vergrößern, auf den grünen Button mit einem Gedankenstrich zu verkleinern, oder auf die grünen Pfeile für benachbarte Karten.


METAR-TAF: